Terminal Aerodrome Forecast
Issued by NWS Pocatello, ID

Home | Current Version | Previous Version | Text Only | Print | Product List | Glossary On
Versions: 1 2 3 4 5 6 7 8 9 10 11 12 13
000
FTUS45 KPIH 302320
TAFBYI
TAF
KBYI 302320Z 0100/0124 VRB06KT P6SM -SHRA BKN070 OVC100
     FM010400 VRB05KT P6SM SCT090
     FM011500 13014G24KT P6SM SKC=

USA.gov is the U.S. government's official web portal to all federal, state and local government web resources and services.